Observation data for Hart on 12/13/2019      Previous  Date       Current Mesonet Observations  Soil Data  Daily Summary Page  Observations in Plain Language
KHRS 130600Z 23003KT M01/M04 A2998 RMK A01 T10051039  RH  079%=      5-min Rain = 0
KHRS 130605Z 24003KT M01/M04 A2997 RMK A01 T10141044  RH  081%=      5-min Rain = 0
KHRS 130610Z 26003KT M02/M04 A2997 RMK A01 T10171044  RH  083%=      5-min Rain = 0
KHRS 130615Z 27004KT M02/M04 A2997 RMK A01 T10181042  RH  084%=      5-min Rain = 0
KHRS 130620Z 27004KT M02/M04 A2997 RMK A01 T10201044  RH  084%=      5-min Rain = 0
KHRS 130625Z 27004KT M02/M04 A2997 RMK A01 T10201042  RH  086%=      5-min Rain = 0
KHRS 130630Z 27005KT M02/M04 A2997 RMK A01 T10221044  RH  085%=      5-min Rain = 0
KHRS 130635Z 28005KT M02/M04 A2997 RMK A01 T10231044  RH  086%=      5-min Rain = 0
KHRS 130640Z 28005KT M03/M05 A2997 RMK A01 T10251045  RH  087%=      5-min Rain = 0
KHRS 130645Z 28004KT M03/M05 A2996 RMK A01 T10261046  RH  087%=      5-min Rain = 0
KHRS 130650Z 29004KT M02/M04 A2996 RMK A01 T10231040  RH  089%=      5-min Rain = 0
KHRS 130655Z 31004KT M02/M04 A2996 RMK A01 T10181037  RH  088%=      5-min Rain = 0
KHRS 130700Z 32005KT M02/M04 A2996 RMK A01 T10191039  RH  087%=      5-min Rain = 0
KHRS 130705Z 32005KT M02/M04 A2996 RMK A01 T10191038  RH  088%=      5-min Rain = 0
KHRS 130710Z 31006KT M02/M04 A2997 RMK A01 T10181037  RH  088%=      5-min Rain = 0
KHRS 130715Z 30006KT M02/M04 A2996 RMK A01 T10201040  RH  087%=      5-min Rain = 0
KHRS 130720Z 30006KT M02/M04 A2996 RMK A01 T10211040  RH  088%=      5-min Rain = 0
KHRS 130725Z 30007KT M02/M04 A2996 RMK A01 T10201039  RH  088%=      5-min Rain = 0
KHRS 130730Z 30007KT M02/M04 A2996 RMK A01 T10231043  RH  087%=      5-min Rain = 0
KHRS 130735Z 30007KT M03/M04 A2996 RMK A01 T10251043  RH  088%=      5-min Rain = 0
KHRS 130740Z 30007KT M02/M04 A2996 RMK A01 T10231039  RH  089%=      5-min Rain = 0
KHRS 130745Z 30006KT M02/M04 A2996 RMK A01 T10201037  RH  089%=      5-min Rain = 0
KHRS 130750Z 30006KT M02/M04 A2995 RMK A01 T10201038  RH  089%=      5-min Rain = 0
KHRS 130755Z 31005KT M02/M04 A2994 RMK A01 T10201038  RH  089%=      5-min Rain = 0
KHRS 130800Z 32005KT M02/M04 A2994 RMK A01 T10201038  RH  089%=      5-min Rain = 0
KHRS 130805Z 32004KT M02/M04 A2994 RMK A01 T10191036  RH  089%=      5-min Rain = 0
KHRS 130810Z 31004KT M02/M04 A2993 RMK A01 T10181036  RH  089%=      5-min Rain = 0
KHRS 130815Z 31006KT M02/M04 A2994 RMK A01 T10201039  RH  088%=      5-min Rain = 0
KHRS 130820Z 31006KT M03/M05 A2994 RMK A01 T10251045  RH  087%=      5-min Rain = 0
KHRS 130825Z 32006KT M03/M04 A2994 RMK A01 T10271044  RH  089%=      5-min Rain = 0
KHRS 130830Z 31007KT M03/M04 A2994 RMK A01 T10261042  RH  089%=      5-min Rain = 0
KHRS 130835Z 31007KT M03/M04 A2994 RMK A01 T10251042  RH  089%=      5-min Rain = 0
KHRS 130840Z 31007KT M03/M04 A2995 RMK A01 T10261043  RH  090%=      5-min Rain = 0
KHRS 130845Z 31007KT M03/M04 A2995 RMK A01 T10251041  RH  090%=      5-min Rain = 0
KHRS 130850Z 31007KT M03/M04 A2994 RMK A01 T10261042  RH  090%=      5-min Rain = 0
KHRS 130855Z 31007KT M03/M04 A2994 RMK A01 T10261041  RH  090%=      5-min Rain = 0
KHRS 130900Z 31007KT M03/M04 A2995 RMK A01 T10251041  RH  090%=      5-min Rain = 0
KHRS 130905Z 31007KT M03/M04 A2994 RMK A01 T10251040  RH  090%=      5-min Rain = 0
KHRS 130910Z 32007KT M02/M04 A2994 RMK A01 T10241039  RH  091%=      5-min Rain = 0
KHRS 130915Z 32008KT M02/M04 A2994 RMK A01 T10231037  RH  091%=      5-min Rain = 0
KHRS 130920Z 32007KT M02/M04 A2994 RMK A01 T10211036  RH  091%=      5-min Rain = 0
KHRS 130925Z 32007KT M02/M04 A2994 RMK A01 T10201035  RH  090%=      5-min Rain = 0
KHRS 130930Z 32006KT M02/M04 A2994 RMK A01 T10201036  RH  090%=      5-min Rain = 0
KHRS 130935Z 31005KT M02/M04 A2994 RMK A01 T10221039  RH  089%=      5-min Rain = 0
KHRS 130940Z 26003KT M02/M04 A2994 RMK A01 T10231040  RH  089%=      5-min Rain = 0
KHRS 130945Z 24005KT M02/M04 A2995 RMK A01 T10241040  RH  090%=      5-min Rain = 0
KHRS 130950Z 26007KT M03/M04 A2995 RMK A01 T10271043  RH  090%=      5-min Rain = 0
KHRS 130955Z 26008KT M03/M04 A2995 RMK A01 T10301044  RH  091%=      5-min Rain = 0
KHRS 131000Z 27006KT M03/M04 A2995 RMK A01 T10301043  RH  092%=      5-min Rain = 0
KHRS 131005Z 28006KT M03/M04 A2995 RMK A01 T10291042  RH  092%=      5-min Rain = 0
KHRS 131010Z 28006KT M03/M04 A2995 RMK A01 T10291041  RH  092%=      5-min Rain = 0
KHRS 131015Z 26008KT M03/M04 A2995 RMK A01 T10281039  RH  093%=      5-min Rain = 0
KHRS 131020Z 26008KT M03/M04 A2994 RMK A01 T10271038  RH  093%=      5-min Rain = 0
KHRS 131025Z 27007KT M03/M04 A2994 RMK A01 T10261036  RH  094%=      5-min Rain = 0
KHRS 131030Z 28007KT M02/M04 A2994 RMK A01 T10241035  RH  093%=      5-min Rain = 0
KHRS 131035Z 29007KT M02/M03 A2994 RMK A01 T10221032  RH  093%=      5-min Rain = 0
KHRS 131040Z 29008KT M02/M03 A2993 RMK A01 T10191030  RH  093%=      5-min Rain = 0
KHRS 131045Z 30008KT M02/M03 A2993 RMK A01 T10161029  RH  092%=      5-min Rain = 0
KHRS 131050Z 30007KT M02/M03 A2993 RMK A01 T10151029  RH  091%=      5-min Rain = 0
KHRS 131055Z 30006KT M02/M03 A2993 RMK A01 T10161031  RH  090%=      5-min Rain = 0
KHRS 131100Z 30007KT M02/M03 A2993 RMK A01 T10161031  RH  090%=      5-min Rain = 0
KHRS 131105Z 30007KT M02/M03 A2993 RMK A01 T10161032  RH  090%=      5-min Rain = 0
KHRS 131110Z 30005KT M02/M03 A2993 RMK A01 T10161031  RH  090%=      5-min Rain = 0
KHRS 131115Z 29006KT M02/M03 A2993 RMK A01 T10171032  RH  091%=      5-min Rain = 0
KHRS 131120Z 29007KT M02/M03 A2993 RMK A01 T10181032  RH  091%=      5-min Rain = 0
KHRS 131125Z 30008KT M02/M03 A2993 RMK A01 T10151029  RH  091%=      5-min Rain = 0
KHRS 131130Z 29009KT M01/M03 A2992 RMK A01 T10111026  RH  090%=      5-min Rain = 0
KHRS 131135Z 29010KT M01/M03 A2992 RMK A01 T10071025  RH  088%=      5-min Rain = 0
KHRS 131140Z 29009KT M00/M03 A2993 RMK A01 T10041025  RH  087%=      5-min Rain = 0
KHRS 131145Z 29009KT M00/M03 A2993 RMK A01 T10021025  RH  085%=      5-min Rain = 0
KHRS 131150Z 29008KT M00/M03 A2993 RMK A01 T10011026  RH  084%=      5-min Rain = 0
KHRS 131155Z 28008KT M00/M03 A2993 RMK A01 T10021026  RH  085%=      5-min Rain = 0
KHRS 131200Z 27009KT M00/M03 A2994 RMK A01 T10041028  RH  085%=      5-min Rain = 0
KHRS 131205Z 27009KT M01/M03 A2994 RMK A01 T10061028  RH  086%=      5-min Rain = 0
KHRS 131210Z 26007KT M01/M03 A2993 RMK A01 T10081029  RH  087%=      5-min Rain = 0
KHRS 131215Z 27007KT M01/M03 A2993 RMK A01 T10111030  RH  088%=      5-min Rain = 0
KHRS 131220Z 27008KT M01/M03 A2993 RMK A01 T10111029  RH  089%=      5-min Rain = 0
KHRS 131225Z 27009KT M01/M03 A2993 RMK A01 T10091025  RH  089%=      5-min Rain = 0
KHRS 131230Z 27008KT M00/M02 A2993 RMK A01 T10041023  RH  088%=      5-min Rain = 0
KHRS 131235Z 27008KT 00/02 A2993 RMK A01 T00-00-20  RH  088%=      5-min Rain = 0
KHRS 131240Z 27007KT 00/M02 A2993 RMK A01 T00041017  RH  087%=      5-min Rain = 0
KHRS 131245Z 27008KT 01/M02 A2993 RMK A01 T00071015  RH  086%=      5-min Rain = 0
KHRS 131250Z 28008KT 01/M01 A2993 RMK A01 T00121012  RH  085%=      5-min Rain = 0
KHRS 131255Z 28008KT 02/M01 A2993 RMK A01 T00151011  RH  083%=      5-min Rain = 0
KHRS 131300Z 28008KT 02/M01 A2992 RMK A01 T00161012  RH  083%=      5-min Rain = 0
KHRS 131305Z 28008KT 02/M01 A2993 RMK A01 T00151013  RH  082%=      5-min Rain = 0
KHRS 131310Z 28009KT 01/M01 A2993 RMK A01 T00141013  RH  083%=      5-min Rain = 0
KHRS 131315Z 28009KT 02/M01 A2993 RMK A01 T00151013  RH  083%=      5-min Rain = 0
KHRS 131320Z 28010KT 02/M01 A2993 RMK A01 T00161013  RH  082%=      5-min Rain = 0
KHRS 131325Z 27010KT 02/M01 A2993 RMK A01 T00161013  RH  082%=      5-min Rain = 0
KHRS 131330Z 27010KT 02/M01 A2993 RMK A01 T00161014  RH  082%=      5-min Rain = 0
KHRS 131335Z 28010KT 02/M01 A2993 RMK A01 T00161014  RH  082%=      5-min Rain = 0
KHRS 131340Z 28009KT 01/M02 A2993 RMK A01 T00141015  RH  082%=      5-min Rain = 0
KHRS 131345Z 28009KT 01/M02 A2993 RMK A01 T00111016  RH  083%=      5-min Rain = 0
KHRS 131350Z 28009KT 01/M02 A2994 RMK A01 T00091016  RH  084%=      5-min Rain = 0
KHRS 131355Z 28009KT 01/M02 A2993 RMK A01 T00081017  RH  085%=      5-min Rain = 0
KHRS 131400Z 28009KT 01/M02 A2993 RMK A01 T00071017  RH  085%=      5-min Rain = 0
KHRS 131405Z 28009KT 01/M02 A2994 RMK A01 T00071016  RH  085%=      5-min Rain = 0
KHRS 131410Z 27008KT 01/M02 A2994 RMK A01 T00081015  RH  086%=      5-min Rain = 0
KHRS 131415Z 27008KT 01/M01 A2995 RMK A01 T00101013  RH  086%=      5-min Rain = 0
KHRS 131420Z 28009KT 02/M01 A2995 RMK A01 T00151011  RH  084%=      5-min Rain = 0
KHRS 131425Z 27009KT 02/M01 A2995 RMK A01 T00191009  RH  083%=      5-min Rain = 0
KHRS 131430Z 27009KT 02/M01 A2996 RMK A01 T00221008  RH  081%=      5-min Rain = 0
KHRS 131435Z 27009KT 03/M01 A2996 RMK A01 T00251007  RH  080%=      5-min Rain = 0
KHRS 131440Z 27008KT 03/M01 A2995 RMK A01 T00281006  RH  079%=      5-min Rain = 0
KHRS 131445Z 27009KT 03/M01 A2996 RMK A01 T00301005  RH  079%=      5-min Rain = 0
KHRS 131450Z 27009KT 03/M00 A2996 RMK A01 T00341002  RH  078%=      5-min Rain = 0
KHRS 131455Z 27009KT 04/00 A2996 RMK A01 T00400000  RH  076%=      5-min Rain = 0
KHRS 131500Z 27010KT 04/00 A2996 RMK A01 T00440002  RH  075%=      5-min Rain = 0
KHRS 131505Z 27011KT 05/00 A2995 RMK A01 T00500003  RH  072%=      5-min Rain = 0
KHRS 131510Z 26012KT 06/00 A2996 RMK A01 T00550003  RH  070%=      5-min Rain = 0
KHRS 131515Z 26012KT 06/00 A2995 RMK A01 T00580004  RH  069%=      5-min Rain = 0
KHRS 131520Z 26013KT 06/01 A2995 RMK A01 T00620005  RH  068%=      5-min Rain = 0
KHRS 131525Z 27012KT 07/01 A2996 RMK A01 T00670006  RH  066%=      5-min Rain = 0
KHRS 131530Z 27014KT 07/01 A2996 RMK A01 T00740006  RH  063%=      5-min Rain = 0
KHRS 131535Z 26012KT 08/01 A2996 RMK A01 T00770008  RH  062%=      5-min Rain = 0
KHRS 131540Z 26013KT 08/01 A2996 RMK A01 T00790008  RH  061%=      5-min Rain = 0
KHRS 131545Z 26013KT 08/01 A2995 RMK A01 T00820008  RH  060%=      5-min Rain = 0
KHRS 131550Z 26014KT 09/01 A2995 RMK A01 T00880008  RH  058%=      5-min Rain = 0
KHRS 131555Z 27014KT 09/01 A2995 RMK A01 T00920008  RH  056%=      5-min Rain = 0
KHRS 131600Z 27013KT 10/01 A2995 RMK A01 T00950007  RH  055%=      5-min Rain = 0
KHRS 131605Z 27014KT 10/01 A2995 RMK A01 T00990007  RH  053%=      5-min Rain = 0
KHRS 131610Z 27014KT 10/01 A2995 RMK A01 T01020005  RH  052%=      5-min Rain = 0
KHRS 131615Z 27012KT 11/01 A2995 RMK A01 T01050008  RH  052%=      5-min Rain = 0
KHRS 131620Z 26012KT 11/01 A2995 RMK A01 T01060008  RH  051%=      5-min Rain = 0
KHRS 131625Z 26013KT 11/01 A2995 RMK A01 T01100009  RH  050%=      5-min Rain = 0
KHRS 131630Z 27013KT 11/01 A2995 RMK A01 T01110008  RH  049%=      5-min Rain = 0
KHRS 131635Z 27013KT 11/01 A2994 RMK A01 T01140008  RH  049%=      5-min Rain = 0
KHRS 131640Z 26012KT 12/01 A2994 RMK A01 T01170010  RH  049%=      5-min Rain = 0
KHRS 131645Z 26012KT 12/01 A2994 RMK A01 T01180011  RH  048%=      5-min Rain = 0
KHRS 131650Z 27012KT 12/01 A2995 RMK A01 T01220013  RH  048%=      5-min Rain = 0
KHRS 131655Z 28014KT 13/01 A2995 RMK A01 T01250008  RH  045%=      5-min Rain = 0
KHRS 131700Z 28016KT 13/01 A2995 RMK A01 T01270007  RH  045%=      5-min Rain = 0
KHRS 131705Z 27015KT 13/01 A2995 RMK A01 T01300009  RH  044%=      5-min Rain = 0
KHRS 131710Z 27014KT 13/01 A2994 RMK A01 T01320010  RH  044%=      5-min Rain = 0
KHRS 131715Z 28015KT 13/01 A2994 RMK A01 T01340009  RH  043%=      5-min Rain = 0
KHRS 131720Z 28014KT 14/01 A2994 RMK A01 T01370011  RH  043%=      5-min Rain = 0
KHRS 131725Z 28015KT 14/01 A2994 RMK A01 T01390012  RH  043%=      5-min Rain = 0
KHRS 131730Z 27014KT 14/02 A2994 RMK A01 T01420015  RH  043%=      5-min Rain = 0
KHRS 131735Z 27015KT 15/01 A2994 RMK A01 T01480014  RH  041%=      5-min Rain = 0
KHRS 131740Z 28015KT 15/01 A2993 RMK A01 T01520014  RH  040%=      5-min Rain = 0
KHRS 131745Z 28014G20KT 15/02 A2993 RMK A01 T01540015  RH  039%=      5-min Rain = 0
KHRS 131750Z 28013KT 16/01 A2993 RMK A01 T01590014  RH  038%=      5-min Rain = 0
KHRS 131755Z 28014G22KT 16/01 A2992 RMK A01 T01600014  RH  038%=      5-min Rain = 0
KHRS 131800Z 29018KT 17/00 A2992 RMK A01 T01660001  RH  033%=      5-min Rain = 0
KHRS 131805Z 29017KT 17/00 A2992 RMK A01 T01680001  RH  033%=      5-min Rain = 0
KHRS 131810Z 28018KT 17/00 A2991 RMK A01 T01700000  RH  032%=      5-min Rain = 0
KHRS 131815Z 29019KT 17/M00 A2991 RMK A01 T01721002  RH  031%=      5-min Rain = 0
KHRS 131820Z 29021G28KT 18/M01 A2991 RMK A01 T01751006  RH  030%=      5-min Rain = 0
KHRS 131825Z 30020G25KT 18/M01 A2991 RMK A01 T01751008  RH  029%=      5-min Rain = 0
KHRS 131830Z 30019G24KT 18/M01 A299 RMK A01 T01771007  RH  029%=      5-min Rain = 0
KHRS 131835Z 30020G25KT 18/M01 A2989 RMK A01 T01771010  RH  029%=      5-min Rain = 0
KHRS 131840Z 30018KT 18/M01 A2989 RMK A01 T01771008  RH  029%=      5-min Rain = 0
KHRS 131845Z 30019G24KT 18/M01 A2989 RMK A01 T01791008  RH  028%=      5-min Rain = 0
KHRS 131850Z 30017G24KT 18/M01 A299 RMK A01 T01821008  RH  028%=      5-min Rain = 0
KHRS 131855Z 30017G23KT 18/M01 A2989 RMK A01 T01831008  RH  028%=      5-min Rain = 0
KHRS 131900Z 30018G23KT 18/M01 A2989 RMK A01 T01831009  RH  028%=      5-min Rain = 0
KHRS 131905Z 30020KT 18/M01 A2989 RMK A01 T01821011  RH  027%=      5-min Rain = 0
KHRS 131910Z 30019G25KT 18/M01 A2989 RMK A01 T01831012  RH  027%=      5-min Rain = 0
KHRS 131915Z 31020KT 18/M01 A2989 RMK A01 T01821013  RH  027%=      5-min Rain = 0
KHRS 131920Z 30018G24KT 18/M01 A2989 RMK A01 T01821014  RH  027%=      5-min Rain = 0
KHRS 131925Z 32018G23KT 18/M02 A2989 RMK A01 T01831015  RH  026%=      5-min Rain = 0
KHRS 131930Z 31017G25KT 18/M02 A2989 RMK A01 T01831016  RH  026%=      5-min Rain = 0
KHRS 131935Z 31017KT 18/M02 A2988 RMK A01 T01831017  RH  026%=      5-min Rain = 0
KHRS 131940Z 31017G22KT 19/M02 A2988 RMK A01 T01861018  RH  025%=      5-min Rain = 0
KHRS 131945Z 31016KT 18/M02 A2988 RMK A01 T01841019  RH  025%=      5-min Rain = 0
KHRS 131950Z 31017KT 19/M02 A2988 RMK A01 T01851021  RH  025%=      5-min Rain = 0
KHRS 131955Z 31017KT 18/M02 A2988 RMK A01 T01831023  RH  025%=      5-min Rain = 0
KHRS 132000Z 31017G22KT 18/M02 A2988 RMK A01 T01841023  RH  025%=      5-min Rain = 0
KHRS 132005Z 31018KT 19/M02 A2987 RMK A01 T01851021  RH  025%=      5-min Rain = 0
KHRS 132010Z 30018G23KT 19/M02 A2987 RMK A01 T01861021  RH  025%=      5-min Rain = 0
KHRS 132015Z 31017G22KT 19/M02 A2987 RMK A01 T01871021  RH  025%=      5-min Rain = 0
KHRS 132020Z 30017G22KT 19/M02 A2986 RMK A01 T01871023  RH  024%=      5-min Rain = 0
KHRS 132025Z 31015KT 18/M02 A2986 RMK A01 T01821023  RH  025%=      5-min Rain = 0
KHRS 132030Z 32016G21KT 19/M02 A2986 RMK A01 T01861022  RH  024%=      5-min Rain = 0
KHRS 132035Z 31017KT 19/M03 A2986 RMK A01 T01871025  RH  024%=      5-min Rain = 0
KHRS 132040Z 32015KT 18/M03 A2986 RMK A01 T01821026  RH  024%=      5-min Rain = 0
KHRS 132045Z 31015KT 19/M02 A2986 RMK A01 T01851023  RH  025%=      5-min Rain = 0
KHRS 132050Z 31016G23KT 19/M03 A2986 RMK A01 T01851026  RH  024%=      5-min Rain = 0
KHRS 132055Z 31014G19KT 18/M03 A2986 RMK A01 T01841027  RH  024%=      5-min Rain = 0
KHRS 132100Z 31017G22KT 19/M03 A2986 RMK A01 T01861026  RH  024%=      5-min Rain = 0
KHRS 132105Z 31015G20KT 18/M03 A2986 RMK A01 T01841029  RH  024%=      5-min Rain = 0
KHRS 132110Z 31012KT 18/M03 A2986 RMK A01 T01841028  RH  024%=      5-min Rain = 0
KHRS 132115Z 32014G20KT 19/M03 A2986 RMK A01 T01851032  RH  023%=      5-min Rain = 0
KHRS 132120Z 31012G17KT 19/M03 A2986 RMK A01 T01871031  RH  023%=      5-min Rain = 0
KHRS 132125Z 31014KT 19/M03 A2986 RMK A01 T01871033  RH  022%=      5-min Rain = 0
KHRS 132130Z 31016KT 19/M04 A2986 RMK A01 T01881042  RH  021%=      5-min Rain = 0
KHRS 132135Z 30018KT 19/M05 A2985 RMK A01 T01881047  RH  020%=      5-min Rain = 0
KHRS 132140Z 29018KT 19/M05 A2985 RMK A01 T01871045  RH  021%=      5-min Rain = 0
KHRS 132145Z 29016G21KT 19/M05 A2985 RMK A01 T01861048  RH  020%=      5-min Rain = 0
KHRS 132150Z 29015G22KT 19/M04 A2986 RMK A01 T01851040  RH  022%=      5-min Rain = 0
KHRS 132155Z 29017KT 19/M04 A2986 RMK A01 T01861035  RH  022%=      5-min Rain = 0
KHRS 132200Z 29015KT 18/M03 A2986 RMK A01 T01841032  RH  023%=      5-min Rain = 0
KHRS 132205Z 30014KT 18/M03 A2986 RMK A01 T01841031  RH  023%=      5-min Rain = 0
KHRS 132210Z 30013G19KT 18/M03 A2986 RMK A01 T01841031  RH  023%=      5-min Rain = 0
KHRS 132215Z 30014KT 18/M03 A2986 RMK A01 T01821031  RH  024%=      5-min Rain = 0
KHRS 132220Z 30014KT 18/M03 A2986 RMK A01 T01811028  RH  024%=      5-min Rain = 0
KHRS 132225Z 30012KT 18/M02 A2986 RMK A01 T01801024  RH  025%=      5-min Rain = 0
KHRS 132230Z 30013KT 18/M03 A2986 RMK A01 T01801026  RH  025%=      5-min Rain = 0
KHRS 132235Z 30011KT 18/M02 A2987 RMK A01 T01791024  RH  025%=      5-min Rain = 0
KHRS 132240Z 31010KT 18/M02 A2987 RMK A01 T01771021  RH  026%=      5-min Rain = 0
KHRS 132245Z 30009KT 18/M02 A2987 RMK A01 T01751019  RH  027%=      5-min Rain = 0
KHRS 132250Z 31008KT 17/M02 A2987 RMK A01 T01731019  RH  027%=      5-min Rain = 0
KHRS 132255Z 31008KT 17/M02 A2986 RMK A01 T01701018  RH  028%=      5-min Rain = 0
KHRS 132300Z 30007KT 17/M02 A2986 RMK A01 T01671015  RH  029%=      5-min Rain = 0
KHRS 132305Z 30006KT 16/M01 A2986 RMK A01 T01621013  RH  031%=      5-min Rain = 0
KHRS 132310Z 30006KT 16/M01 A2986 RMK A01 T01561011  RH  032%=      5-min Rain = 0
KHRS 132315Z 30006KT 15/M01 A2986 RMK A01 T01511013  RH  033%=      5-min Rain = 0
KHRS 132320Z 31006KT 15/M01 A2986 RMK A01 T01461013  RH  034%=      5-min Rain = 0
KHRS 132325Z 32006KT 14/M01 A2987 RMK A01 T01381007  RH  037%=      5-min Rain = 0
KHRS 132330Z 31006KT 14/M01 A2987 RMK A01 T01351009  RH  038%=      5-min Rain = 0
KHRS 132335Z 30006KT 13/M01 A2987 RMK A01 T01291013  RH  038%=      5-min Rain = 0
KHRS 132340Z 30007KT 12/M02 A2987 RMK A01 T01231018  RH  038%=      5-min Rain = 0
KHRS 132345Z 30008KT 12/M02 A2987 RMK A01 T01161018  RH  039%=      5-min Rain = 0
KHRS 132350Z 30008KT 11/M02 A2988 RMK A01 T01141018  RH  040%=      5-min Rain = 0
KHRS 132355Z 31008KT 11/M02 A2988 RMK A01 T01141017  RH  040%=      5-min Rain = 0
KHRS 140000Z 30008KT 11/M02 A2988 RMK A01 T01091015  RH  043%=      5-min Rain = 0
KHRS 140005Z 30008KT 10/M02 A2988 RMK A01 T01021016  RH  044%=      5-min Rain = 0
KHRS 140010Z 31007KT 10/M02 A2989 RMK A01 T00981016  RH  045%=      5-min Rain = 0
KHRS 140015Z 31007KT 09/M02 A2989 RMK A01 T00921018  RH  047%=      5-min Rain = 0
KHRS 140020Z 31006KT 09/M02 A2989 RMK A01 T00941018  RH  046%=      5-min Rain = 0
KHRS 140025Z 31007KT 10/M02 A2989 RMK A01 T00951018  RH  046%=      5-min Rain = 0
KHRS 140030Z 31007KT 09/M02 A2988 RMK A01 T00901019  RH  047%=      5-min Rain = 0
KHRS 140035Z 31007KT 09/M02 A2988 RMK A01 T00861019  RH  048%=      5-min Rain = 0
KHRS 140040Z 30008KT 08/M02 A2988 RMK A01 T00821021  RH  049%=      5-min Rain = 0
KHRS 140045Z 30009KT 08/M03 A2988 RMK A01 T00771025  RH  049%=      5-min Rain = 0
KHRS 140050Z 29010KT 07/M03 A2988 RMK A01 T00741026  RH  050%=      5-min Rain = 0
KHRS 140055Z 30011KT 08/M03 A2989 RMK A01 T00761026  RH  049%=      5-min Rain = 0
KHRS 140100Z 29012KT 08/M03 A299 RMK A01 T00811028  RH  046%=      5-min Rain = 0
KHRS 140105Z 30012KT 09/M03 A299 RMK A01 T00891033  RH  043%=      5-min Rain = 0
KHRS 140110Z 30011KT 10/M04 A299 RMK A01 T00991036  RH  039%=      5-min Rain = 0
KHRS 140115Z 29011KT 09/M04 A299 RMK A01 T00941036  RH  040%=      5-min Rain = 0
KHRS 140120Z 29012KT 09/M04 A2991 RMK A01 T00911038  RH  040%=      5-min Rain = 0
KHRS 140125Z 29011KT 09/M04 A2991 RMK A01 T00891040  RH  040%=      5-min Rain = 0
KHRS 140130Z 29011KT 09/M04 A2992 RMK A01 T00891041  RH  040%=      5-min Rain = 0
KHRS 140135Z 29011KT 08/M04 A2992 RMK A01 T00841041  RH  041%=      5-min Rain = 0
KHRS 140140Z 29010KT 08/M04 A2993 RMK A01 T00801041  RH  042%=      5-min Rain = 0
KHRS 140145Z 29008KT 08/M04 A2992 RMK A01 T00781043  RH  043%=      5-min Rain = 0
KHRS 140150Z 29007KT 07/M04 A2992 RMK A01 T00721041  RH  045%=      5-min Rain = 0
KHRS 140155Z 29008KT 06/M04 A2992 RMK A01 T00601041  RH  049%=      5-min Rain = 0
KHRS 140200Z 30009KT 06/M04 A2992 RMK A01 T00571040  RH  050%=      5-min Rain = 0
KHRS 140205Z 29010KT 07/M04 A2992 RMK A01 T00651041  RH  047%=      5-min Rain = 0
KHRS 140210Z 30010KT 07/M04 A2992 RMK A01 T00671041  RH  047%=      5-min Rain = 0
KHRS 140215Z 35009KT 06/M04 A2993 RMK A01 T00611036  RH  050%=      5-min Rain = 0
KHRS 140220Z 35011KT 07/M04 A2993 RMK A01 T00701037  RH  047%=      5-min Rain = 0
KHRS 140225Z 34009KT 08/M04 A2993 RMK A01 T00751038  RH  045%=      5-min Rain = 0
KHRS 140230Z 33008KT 07/M04 A2993 RMK A01 T00741038  RH  045%=      5-min Rain = 0
KHRS 140235Z 33007KT 07/M04 A2993 RMK A01 T00701035  RH  047%=      5-min Rain = 0
KHRS 140240Z 32006KT 07/M03 A2992 RMK A01 T00671034  RH  049%=      5-min Rain = 0
KHRS 140245Z 32007KT 07/M04 A2992 RMK A01 T00651035  RH  049%=      5-min Rain = 0
KHRS 140250Z 32008KT 06/M03 A2993 RMK A01 T00611034  RH  051%=      5-min Rain = 0
KHRS 140255Z 32009KT 06/M04 A2994 RMK A01 T00581035  RH  052%=      5-min Rain = 0
KHRS 140300Z 32009KT 05/M04 A2994 RMK A01 T00521035  RH  054%=      5-min Rain = 0
KHRS 140305Z 32010KT 05/M03 A2994 RMK A01 T00511034  RH  055%=      5-min Rain = 0
KHRS 140310Z 32010KT 05/M04 A2994 RMK A01 T00511035  RH  054%=      5-min Rain = 0
KHRS 140315Z 31009KT 05/M04 A2994 RMK A01 T00511037  RH  054%=      5-min Rain = 0
KHRS 140320Z 31011KT 06/M04 A2994 RMK A01 T00561040  RH  051%=      5-min Rain = 0
KHRS 140325Z 31012KT 07/M05 A2994 RMK A01 T00741046  RH  043%=      5-min Rain = 0
KHRS 140330Z 29010KT 08/M05 A2995 RMK A01 T00781046  RH  042%=      5-min Rain = 0
KHRS 140335Z 27009KT 05/M04 A2995 RMK A01 T00541041  RH  051%=      5-min Rain = 0
KHRS 140340Z 29011KT 05/M04 A2995 RMK A01 T00491041  RH  053%=      5-min Rain = 0
KHRS 140345Z 30010KT 07/M05 A2995 RMK A01 T00661045  RH  046%=      5-min Rain = 0
KHRS 140350Z 30011KT 08/M05 A2994 RMK A01 T00751047  RH  042%=      5-min Rain = 0
KHRS 140355Z 30011KT 07/M05 A2994 RMK A01 T00731046  RH  043%=      5-min Rain = 0
KHRS 140400Z 30011KT 07/M05 A2994 RMK A01 T00701046  RH  044%=      5-min Rain = 0
KHRS 140405Z 30011KT 07/M05 A2994 RMK A01 T00711047  RH  043%=      5-min Rain = 0
KHRS 140410Z 31011KT 07/M05 A2993 RMK A01 T00701046  RH  044%=      5-min Rain = 0
KHRS 140415Z 31010KT 06/M04 A2993 RMK A01 T00611044  RH  047%=      5-min Rain = 0
KHRS 140420Z 31010KT 06/M04 A2992 RMK A01 T00601044  RH  048%=      5-min Rain = 0
KHRS 140425Z 32009KT 06/M05 A2992 RMK A01 T00631045  RH  046%=      5-min Rain = 0
KHRS 140430Z 32010KT 06/M05 A2992 RMK A01 T00611045  RH  047%=      5-min Rain = 0
KHRS 140435Z 33010KT 06/M05 A2992 RMK A01 T00591045  RH  048%=      5-min Rain = 0
KHRS 140440Z 33010KT 05/M04 A2992 RMK A01 T00531043  RH  050%=      5-min Rain = 0
KHRS 140445Z 33010KT 05/M04 A2992 RMK A01 T00461042  RH  054%=      5-min Rain = 0
KHRS 140450Z 33010KT 04/M04 A2993 RMK A01 T00411040  RH  056%=      5-min Rain = 0
KHRS 140455Z 35009KT 04/M04 A2992 RMK A01 T00421041  RH  056%=      5-min Rain = 0
KHRS 140500Z 35008KT 04/M04 A2993 RMK A01 T00371041  RH  057%=      5-min Rain = 0
KHRS 140505Z 34009KT 04/M04 A2993 RMK A01 T00351041  RH  058%=      5-min Rain = 0
KHRS 140510Z 34009KT 04/M04 A2993 RMK A01 T00371042  RH  057%=      5-min Rain = 0
KHRS 140515Z 33008KT 03/M04 A2993 RMK A01 T00341044  RH  058%=      5-min Rain = 0
KHRS 140520Z 33008KT 03/M04 A2993 RMK A01 T00261043  RH  061%=      5-min Rain = 0
KHRS 140525Z 33008KT 02/M04 A2993 RMK A01 T00241042  RH  063%=      5-min Rain = 0
KHRS 140530Z 35007KT 02/M04 A2993 RMK A01 T00231041  RH  063%=      5-min Rain = 0
KHRS 140535Z 36008KT 02/M04 A2993 RMK A01 T00231040  RH  064%=      5-min Rain = 0
KHRS 140540Z 00010KT 03/M04 A2993 RMK A01 T00271036  RH  064%=      5-min Rain = 0
KHRS 140545Z 00010KT 03/M04 A2994 RMK A01 T00281035  RH  064%=      5-min Rain = 0
KHRS 140550Z 00009KT 03/M03 A2994 RMK A01 T00271033  RH  065%=      5-min Rain = 0
KHRS 140555Z 01007KT 03/M03 A2993 RMK A01 T00251034  RH  066%=      5-min Rain = 0

Page generated in 0.0081 seconds.